Time;durP1;ratioP1;P1;durP2;ratioP2;P2;SDS_P1;SDS_P2;PMS_P1;PMS_P2;Temp;Humidity;BMP_temperature;BMP_pressure;BME280_temperature;BME280_humidity;BME280_pressure;Samples;Min_cycle;Max_cycle;Signal;HPM_P1;HPM_P2
2024/01/28 00:01:18;;;;;;;30.13;13.40;;;;;;;0.36;100.00;100430.44;5096278;28;20124;-68
2024/01/28 00:03:43;;;;;;;28.47;13.03;;;;;;;0.33;100.00;100427.97;5112915;28;20040;-68
2024/01/28 00:06:09;;;;;;;24.33;13.17;;;;;;;0.33;100.00;100439.28;5096375;28;20093;-68
2024/01/28 00:08:35;;;;;;;27.43;13.97;;;;;;;0.30;100.00;100438.56;5113136;28;20043;-68
2024/01/28 00:11:01;;;;;;;29.43;13.93;;;;;;;0.28;100.00;100437.81;5095934;28;20036;-68
2024/01/28 00:13:28;;;;;;;31.80;14.60;;;;;;;0.31;100.00;100442.88;5096168;28;20057;-67
2024/01/28 00:15:54;;;;;;;31.43;14.30;;;;;;;0.30;100.00;100443.78;5114195;28;20036;-68
2024/01/28 00:18:20;;;;;;;29.77;13.93;;;;;;;0.31;100.00;100440.28;5096116;28;20044;-68
2024/01/28 00:20:47;;;;;;;33.27;14.70;;;;;;;0.31;100.00;100456.78;5112852;28;20097;-68
2024/01/28 00:23:13;;;;;;;27.27;13.30;;;;;;;0.34;100.00;100450.56;5113810;28;20049;-67
2024/01/28 00:25:39;;;;;;;29.60;12.90;;;;;;;0.29;100.00;100457.78;5113705;28;20364;-67
2024/01/28 00:28:05;;;;;;;25.00;12.40;;;;;;;0.31;100.00;100450.72;5113236;28;20038;-67
2024/01/28 00:30:32;;;;;;;23.37;11.90;;;;;;;0.30;100.00;100449.88;5095541;28;20056;-67
2024/01/28 00:33:01;;;;;;;24.50;12.17;;;;;;;0.43;100.00;100444.91;5113700;28;20054;-67
2024/01/28 00:35:26;;;;;;;25.70;12.23;;;;;;;0.29;100.00;100450.81;5113737;28;20047;-67
2024/01/28 00:37:55;;;;;;;27.77;12.73;;;;;;;0.31;100.00;100461.19;5094507;28;20157;-67
2024/01/28 00:40:21;;;;;;;24.07;11.60;;;;;;;0.33;100.00;100452.34;5112699;27;20043;-68
2024/01/28 00:42:47;;;;;;;27.80;12.87;;;;;;;0.31;100.00;100454.16;5113118;28;20043;-67
2024/01/28 00:45:13;;;;;;;26.67;11.97;;;;;;;0.31;100.00;100450.72;5113126;28;20039;-67
2024/01/28 00:47:44;;;;;;;27.70;12.47;;;;;;;0.32;100.00;100452.41;5112137;28;20096;-67
2024/01/28 00:50:10;;;;;;;29.75;13.10;;;;;;;0.34;100.00;100461.03;5078693;28;20051;-69
2024/01/28 00:52:35;;;;;;;27.97;12.27;;;;;;;0.21;100.00;100463.38;5113059;28;20073;-67
2024/01/28 00:55:01;;;;;;;27.40;12.07;;;;;;;0.26;100.00;100453.56;5112457;28;20051;-68
2024/01/28 00:57:29;;;;;;;27.43;12.13;;;;;;;0.30;100.00;100462.06;5096282;28;20092;-67
2024/01/28 00:59:54;;;;;;;26.50;12.30;;;;;;;0.32;100.00;100462.84;5112683;28;20043;-68
2024/01/28 01:02:20;;;;;;;25.20;12.13;;;;;;;0.32;100.00;100462.84;5113430;28;20039;-68
2024/01/28 01:04:46;;;;;;;25.47;12.30;;;;;;;0.35;100.00;100460.94;5112117;28;20035;-68
2024/01/28 01:07:12;;;;;;;26.33;11.67;;;;;;;0.33;100.00;100460.16;5078347;28;20440;-70
2024/01/28 01:09:44;;;;;;;26.93;13.50;;;;;;;0.36;100.00;100472.22;5068969;28;20387;-68
2024/01/28 01:12:10;;;;;;;24.10;12.03;;;;;;;0.35;100.00;100474.00;5067972;28;20464;-68
2024/01/28 01:14:37;;;;;;;27.53;12.80;;;;;;;0.34;100.00;100472.31;5067984;28;20041;-68
2024/01/28 01:17:04;;;;;;;31.90;13.43;;;;;;;0.40;100.00;100464.16;5067578;28;20036;-68
2024/01/28 01:19:30;;;;;;;28.83;13.53;;;;;;;0.36;100.00;100467.00;5068891;28;20051;-73
2024/01/28 01:21:57;;;;;;;29.93;13.33;;;;;;;0.37;100.00;100468.72;5068963;28;20182;-68
2024/01/28 01:24:23;;;;;;;30.43;12.43;;;;;;;0.38;100.00;100470.41;5068880;28;20110;-68
2024/01/28 01:26:51;;;;;;;29.50;12.73;;;;;;;0.49;100.00;100470.72;5068578;28;20044;-68
2024/01/28 01:29:16;;;;;;;28.17;13.13;;;;;;;0.42;100.00;100469.31;5051145;28;20394;-69
2024/01/28 01:31:42;;;;;;;30.13;12.63;;;;;;;0.43;100.00;100477.06;5069070;28;20041;-68
2024/01/28 01:34:08;;;;;;;29.10;13.30;;;;;;;0.36;100.00;100474.84;5068097;28;20171;-68
2024/01/28 01:36:33;;;;;;;31.67;13.23;;;;;;;0.45;100.00;100472.63;5051174;28;20049;-68
2024/01/28 01:38:59;;;;;;;31.07;14.37;;;;;;;0.43;100.00;100473.66;5069125;28;20040;-68
2024/01/28 01:41:25;;;;;;;26.30;13.53;;;;;;;0.43;100.00;100466.63;5067519;28;20040;-69
2024/01/28 01:43:54;;;;;;;29.73;13.63;;;;;;;0.63;100.00;100474.34;5034474;28;20930;-68
2024/01/28 01:46:21;;;;;;;32.23;13.70;;;;;;;0.59;100.00;100478.03;5067805;28;20033;-68
2024/01/28 01:48:49;;;;;;;28.27;13.00;;;;;;;0.55;100.00;100470.44;5068567;28;20053;-67
2024/01/28 01:51:15;;;;;;;30.30;13.60;;;;;;;0.53;100.00;100464.41;5067412;28;20040;-68
2024/01/28 01:53:42;;;;;;;33.03;13.57;;;;;;;0.56;100.00;100482.56;5067133;28;20068;-67
2024/01/28 01:56:08;;;;;;;27.37;12.47;;;;;;;0.44;100.00;100483.16;5050607;28;20167;-67
2024/01/28 01:58:34;;;;;;;31.57;13.93;;;;;;;0.42;100.00;100485.00;5067036;28;20131;-67
2024/01/28 02:01:01;;;;;;;36.90;15.27;;;;;;;0.41;100.00;100475.47;5067358;28;20048;-68
2024/01/28 02:03:28;;;;;;;30.07;13.80;;;;;;;0.37;100.00;100487.00;5050730;28;20044;-68
2024/01/28 02:05:54;;;;;;;31.47;14.60;;;;;;;0.37;100.00;100473.94;5067481;28;20040;-67
2024/01/28 02:08:20;;;;;;;36.17;15.47;;;;;;;0.37;100.00;100472.16;5067479;28;20056;-66
2024/01/28 02:10:46;;;;;;;36.33;15.07;;;;;;;0.36;100.00;100480.06;5034081;28;20040;-67
2024/01/28 02:13:12;;;;;;;36.73;14.93;;;;;;;0.35;100.00;100494.06;5050302;28;20130;-66
2024/01/28 02:15:38;;;;;;;31.57;14.63;;;;;;;0.37;100.00;100487.00;5066881;28;20119;-68
2024/01/28 02:18:05;;;;;;;36.47;15.57;;;;;;;0.40;100.00;100485.06;5067545;28;20047;-67
2024/01/28 02:20:31;;;;;;;32.53;14.67;;;;;;;0.38;100.00;100488.69;5040612;28;20458;-68
2024/01/28 02:22:56;;;;;;;36.00;15.47;;;;;;;0.39;100.00;100480.78;5053534;28;20095;-67
2024/01/28 02:25:22;;;;;;;34.80;14.70;;;;;;;0.43;100.00;100489.31;5053554;28;20072;-68
2024/01/28 02:27:48;;;;;;;33.83;14.80;;;;;;;0.43;100.00;100492.75;5020530;28;20048;-68
2024/01/28 02:30:15;;;;;;;33.93;14.50;;;;;;;0.48;100.00;100498.63;5037234;28;20037;-70
2024/01/28 02:32:50;;;;;;;36.00;14.83;;;;;;;0.62;100.00;100492.72;5054504;28;20113;-68
2024/01/28 02:35:17;;;;;;;34.03;15.27;;;;;;;0.53;100.00;100499.25;5053281;28;20059;-68
2024/01/28 02:37:43;;;;;;;34.10;15.27;;;;;;;0.45;100.00;100510.97;5053232;28;20471;-68
2024/01/28 02:40:10;;;;;;;36.73;15.70;;;;;;;0.48;100.00;100509.06;5036577;28;20132;-68
2024/01/28 02:42:35;;;;;;;35.20;15.47;;;;;;;0.43;100.00;100513.66;5036491;28;20041;-68
2024/01/28 02:45:01;;;;;;;40.53;17.03;;;;;;;0.43;100.00;100518.06;5036647;28;21091;-67
2024/01/28 02:47:30;;;;;;;32.87;15.13;;;;;;;0.41;100.00;100519.88;5053374;28;20464;-68
2024/01/28 02:49:56;;;;;;;29.93;14.40;;;;;;;0.42;100.00;100521.56;5054097;28;20041;-67
2024/01/28 02:52:22;;;;;;;32.87;14.30;;;;;;;0.41;100.00;100532.97;5054451;28;20460;-68
2024/01/28 02:54:47;;;;;;;33.23;15.40;;;;;;;0.38;100.00;100530.50;5053979;28;20086;-68
2024/01/28 02:57:13;;;;;;;33.03;15.00;;;;;;;0.35;100.00;100533.25;5052576;28;20048;-68
2024/01/28 02:59:39;;;;;;;32.33;15.17;;;;;;;0.37;100.00;100534.03;5053624;28;20132;-68
2024/01/28 03:02:05;;;;;;;35.07;15.60;;;;;;;0.34;100.00;100537.63;5053435;28;20044;-68
2024/01/28 03:04:38;;;;;;;30.83;15.60;;;;;;;0.42;100.00;100524.19;5054154;28;20048;-67
2024/01/28 03:07:04;;;;;;;34.73;14.83;;;;;;;0.35;100.00;100541.09;5054139;28;20045;-69
2024/01/28 03:09:30;;;;;;;27.87;13.87;;;;;;;0.34;100.00;100540.22;5032549;28;20053;-67
2024/01/28 03:11:56;;;;;;;26.63;13.13;;;;;;;0.35;100.00;100551.53;5016182;28;20044;-66
2024/01/28 03:14:21;;;;;;;36.53;15.80;;;;;;;0.35;100.00;100543.69;5032609;28;20059;-66
2024/01/28 03:16:48;;;;;;;27.93;13.87;;;;;;;0.31;100.00;100547.38;5033353;28;20341;-66
2024/01/28 03:19:15;;;;;;;32.50;14.67;;;;;;;0.33;100.00;100549.00;5033639;28;20037;-70
2024/01/28 03:21:40;;;;;;;36.90;16.70;;;;;;;0.14;100.00;100535.09;5035238;28;20049;-66
2024/01/28 03:24:07;;;;;;;37.03;15.10;;;;;;;0.13;100.00;100550.81;5017585;28;20102;-68
2024/01/28 03:26:35;;;;;;;31.23;14.80;;;;;;;0.13;100.00;100545.59;5016114;28;20041;-71
2024/01/28 03:29:04;;;;;;;33.37;16.40;;;;;;;0.16;100.00;100551.53;5033694;28;20132;-73
2024/01/28 03:31:30;;;;;;;34.00;14.93;;;;;;;0.13;100.00;100535.16;5032630;28;20045;-74
2024/01/28 03:33:57;;;;;;;34.20;14.90;;;;;;;0.08;100.00;100542.38;5033594;28;20041;-74
2024/01/28 03:36:24;;;;;;;39.13;14.90;;;;;;;0.10;100.00;100551.81;5042230;28;20043;-73
2024/01/28 03:38:50;;;;;;;33.40;15.37;;;;;;;0.08;100.00;100545.00;5045126;28;20048;-73
2024/01/28 03:41:16;;;;;;;30.20;14.50;;;;;;;0.06;100.00;100534.63;5053813;28;20044;-69
2024/01/28 03:43:42;;;;;;;35.50;15.37;;;;;;;0.10;100.00;100554.44;5052687;28;20045;-73
2024/01/28 03:46:09;;;;;;;42.57;16.57;;;;;;;0.09;100.00;100555.38;5052362;28;20036;-73
2024/01/28 03:48:35;;;;;;;34.77;15.23;;;;;;;0.07;100.00;100553.72;5053129;28;20041;-69
2024/01/28 03:51:02;;;;;;;37.43;15.23;;;;;;;0.06;100.00;100549.44;5053788;28;20047;-68
2024/01/28 03:53:27;;;;;;;32.80;15.00;;;;;;;0.09;100.00;100555.38;5036986;28;20047;-73
2024/01/28 03:55:53;;;;;;;35.43;15.30;;;;;;;0.08;100.00;100551.03;5054296;28;20127;-72
2024/01/28 03:58:19;;;;;;;37.63;15.60;;;;;;;0.12;100.00;100564.81;5054046;28;20485;-73
2024/01/28 04:00:45;;;;;;;33.13;15.00;;;;;;;0.18;100.00;100562.78;5053366;28;20055;-72
2024/01/28 04:03:11;;;;;;;36.50;15.90;;;;;;;0.17;100.00;100566.28;5048635;28;20049;-69
2024/01/28 04:05:36;;;;;;;36.20;16.40;;;;;;;0.15;100.00;100569.91;5027992;28;20064;-66
2024/01/28 04:08:02;;;;;;;34.63;16.53;;;;;;;0.18;100.00;100572.38;5042327;28;20041;-71
2024/01/28 04:10:28;;;;;;;33.77;14.60;;;;;;;0.19;100.00;100574.91;5041993;28;20033;-73
2024/01/28 04:12:54;;;;;;;35.30;15.47;;;;;;;0.23;100.00;100579.06;5041065;28;20041;-72
2024/01/28 04:15:19;;;;;;;36.43;15.33;;;;;;;0.20;100.00;100581.81;5034127;28;20072;-71
2024/01/28 04:17:46;;;;;;;45.70;16.70;;;;;;;0.28;100.00;100574.47;5030634;28;20479;-73
2024/01/28 04:20:12;;;;;;;40.67;15.07;;;;;;;0.24;100.00;100586.00;4997675;28;20041;-70
2024/01/28 04:22:37;;;;;;;38.60;16.13;;;;;;;0.24;100.00;100580.78;5044681;28;20037;-67
2024/01/28 04:25:04;;;;;;;38.80;15.53;;;;;;;0.26;100.00;100576.34;5050887;28;20191;-72
2024/01/28 04:27:29;;;;;;;40.37;15.60;;;;;;;0.23;100.00;100579.06;5050993;28;20114;-72
2024/01/28 04:29:55;;;;;;;33.77;15.33;;;;;;;0.26;100.00;100586.78;5051126;28;20037;-70
2024/01/28 04:32:21;;;;;;;42.90;16.93;;;;;;;0.24;100.00;100588.63;5051336;28;20060;-72
2024/01/28 04:34:46;;;;;;;40.53;16.60;;;;;;;0.24;100.00;100591.22;5052019;28;20044;-70
2024/01/28 04:37:12;;;;;;;36.97;15.70;;;;;;;0.28;100.00;100597.16;5049698;28;20472;-70
2024/01/28 04:39:38;;;;;;;35.57;15.30;;;;;;;0.26;100.00;100609.44;5051159;28;20132;-66
2024/01/28 04:42:04;;;;;;;42.03;16.60;;;;;;;0.28;100.00;100608.44;5051233;28;20041;-71
2024/01/28 04:44:30;;;;;;;34.27;14.90;;;;;;;0.23;100.00;100599.97;5034485;28;20098;-70
2024/01/28 04:46:57;;;;;;;36.77;15.53;;;;;;;0.29;100.00;100611.91;5051981;28;20118;-70
2024/01/28 04:49:24;;;;;;;41.47;16.20;;;;;;;0.31;100.00;100616.13;5051125;28;20041;-71
2024/01/28 04:51:50;;;;;;;40.17;15.07;;;;;;;0.33;100.00;100616.94;5034629;28;20041;-73
2024/01/28 04:54:17;;;;;;;31.20;14.67;;;;;;;0.32;100.00;100610.03;5051949;28;20055;-71
2024/01/28 04:56:44;;;;;;;35.33;15.03;;;;;;;0.31;100.00;100628.38;5051039;28;20049;-70
2024/01/28 04:59:10;;;;;;;33.53;15.27;;;;;;;0.34;100.00;100628.25;5051263;28;20437;-68
2024/01/28 05:01:36;;;;;;;44.60;16.17;;;;;;;0.32;100.00;100623.09;5053196;28;20091;-71
2024/01/28 05:04:03;;;;;;;35.63;15.60;;;;;;;0.35;100.00;100630.78;5052626;28;20063;-72
2024/01/28 05:06:34;;;;;;;34.43;15.53;;;;;;;0.37;100.00;100617.66;5053045;28;20040;-71
2024/01/28 05:09:03;;;;;;;38.47;16.40;;;;;;;0.41;100.00;100634.88;5052166;28;20048;-70
2024/01/28 05:11:32;;;;;;;38.87;15.67;;;;;;;0.44;100.00;100630.34;5051962;28;20071;-72
2024/01/28 05:13:58;;;;;;;44.27;18.00;;;;;;;0.25;100.00;100629.47;5052010;28;20044;-71
2024/01/28 05:16:24;;;;;;;51.10;18.53;;;;;;;0.17;100.00;100633.38;5050884;28;20052;-72
2024/01/28 05:18:53;;;;;;;41.47;17.17;;;;;;;0.08;100.00;100625.97;5050942;28;20064;-70
2024/01/28 05:21:19;;;;;;;49.13;17.73;;;;;;;-0.01;100.00;100628.06;5051967;28;20083;-70
2024/01/28 05:23:48;;;;;;;44.57;16.97;;;;;;;0.05;100.00;100634.75;5034501;28;20041;-70
2024/01/28 05:26:14;;;;;;;40.83;15.30;;;;;;;0.03;100.00;100643.59;5051838;28;20040;-69
2024/01/28 05:28:40;;;;;;;43.70;16.00;;;;;;;0.05;100.00;100642.59;5051056;28;20114;-70
2024/01/28 05:31:07;;;;;;;50.43;17.27;;;;;;;0.07;100.00;100646.00;5029453;28;20900;-72
2024/01/28 05:33:37;;;;;;;51.60;18.50;;;;;;;0.09;100.00;100654.63;5023325;28;20098;-73
2024/01/28 05:36:15;;;;;;;48.10;18.13;;;;;;;0.25;100.00;100660.00;5040106;28;20045;-69
2024/01/28 05:38:42;;;;;;;46.93;18.00;;;;;;;0.12;100.00;100659.69;5041478;28;20037;-68
2024/01/28 05:41:08;;;;;;;41.47;16.67;;;;;;;0.04;100.00;100656.56;5042812;28;20110;-71
2024/01/28 05:43:35;;;;;;;47.70;17.93;;;;;;;0.00;100.00;100661.06;5043060;28;20033;-71
2024/01/28 05:46:02;;;;;;;48.97;17.23;;;;;;;0.03;100.00;100656.63;5024477;28;20037;-69
2024/01/28 05:48:29;;;;;;;46.70;17.63;;;;;;;-0.04;100.00;100662.13;5043129;28;20049;-67
2024/01/28 05:50:55;;;;;;;53.10;19.17;;;;;;;-0.06;100.00;100660.47;5039991;28;20047;-71
2024/01/28 05:53:20;;;;;;;52.33;17.90;;;;;;;-0.13;100.00;100656.47;5041179;28;20041;-69
2024/01/28 05:55:46;;;;;;;46.77;17.73;;;;;;;-0.11;100.00;100658.06;5043743;28;20042;-70
2024/01/28 05:58:12;;;;;;;50.53;17.93;;;;;;;-0.11;100.00;100668.53;5043218;28;20167;-66
2024/01/28 06:00:40;;;;;;;58.27;19.53;;;;;;;-0.12;100.00;100666.84;5048959;28;20051;-70
2024/01/28 06:03:06;;;;;;;52.00;19.20;;;;;;;-0.09;100.00;100668.44;5044727;28;20041;-70
2024/01/28 06:05:32;;;;;;;49.30;17.90;;;;;;;-0.05;100.00;100672.66;5043429;28;20055;-72
2024/01/28 06:07:58;;;;;;;55.40;19.40;;;;;;;-0.04;100.00;100674.31;5044442;28;20057;-71
2024/01/28 06:10:23;;;;;;;52.93;18.60;;;;;;;0.02;100.00;100676.66;5044006;28;20061;-71
2024/01/28 06:12:49;;;;;;;50.10;17.97;;;;;;;0.06;100.00;100678.25;5043534;28;20040;-70
2024/01/28 06:15:15;;;;;;;44.13;16.30;;;;;;;0.12;100.00;100683.22;5045141;28;20037;-68
2024/01/28 06:17:40;;;;;;;48.10;17.97;;;;;;;0.16;100.00;100683.91;5044459;28;20072;-69
2024/01/28 06:20:08;;;;;;;43.73;16.63;;;;;;;0.26;100.00;100687.81;5048909;28;20060;-72
2024/01/28 06:22:34;;;;;;;57.67;19.00;;;;;;;0.27;100.00;100685.13;5055394;28;20136;-72
2024/01/28 06:25:01;;;;;;;50.83;18.60;;;;;;;0.28;100.00;100688.59;5046131;28;20049;-74
2024/01/28 06:27:31;;;;;;;54.17;20.02;;;;;;;0.20;100.00;100698.53;5011574;28;20076;-68
2024/01/28 06:29:57;;;;;;;60.30;21.17;;;;;;;0.11;100.00;100702.38;5013769;28;20045;-72
2024/01/28 06:32:23;;;;;;;65.80;20.80;;;;;;;0.03;100.00;100697.50;5000512;28;20191;-71
2024/01/28 06:34:49;;;;;;;63.27;20.23;;;;;;;-0.04;100.00;100698.69;5033236;28;20045;-69
2024/01/28 06:37:15;;;;;;;53.47;18.93;;;;;;;-0.06;100.00;100699.66;5000417;28;20033;-70
2024/01/28 06:39:41;;;;;;;53.70;19.47;;;;;;;-0.16;100.00;100717.50;5000706;28;20092;-70
2024/01/28 06:42:09;;;;;;;53.53;20.80;;;;;;;-0.14;100.00;100707.00;5016064;28;20041;-69
2024/01/28 06:44:36;;;;;;;51.50;19.07;;;;;;;-0.28;100.00;100704.94;5017367;28;20080;-69
2024/01/28 06:47:03;;;;;;;59.47;20.27;;;;;;;-0.30;100.00;100714.59;5016764;28;20080;-69
2024/01/28 06:49:29;;;;;;;62.80;20.80;;;;;;;-0.37;100.00;100707.94;5000664;28;20041;-69
2024/01/28 06:51:55;;;;;;;58.60;20.77;;;;;;;-0.42;100.00;100720.34;5016805;28;20140;-69
2024/01/28 06:54:24;;;;;;;56.53;20.73;;;;;;;-0.46;100.00;100718.75;5033166;28;20084;-70
2024/01/28 06:56:50;;;;;;;59.47;20.67;;;;;;;-0.50;100.00;100722.41;5016679;28;20038;-69
2024/01/28 06:59:18;;;;;;;57.30;19.67;;;;;;;-0.53;100.00;100724.28;5000265;28;20120;-69
2024/01/28 07:01:45;;;;;;;61.70;22.00;;;;;;;-0.61;100.00;100719.38;4984710;28;20045;-70
2024/01/28 07:04:11;;;;;;;63.87;20.60;;;;;;;-0.64;100.00;100726.47;5016752;28;20045;-70
2024/01/28 07:06:37;;;;;;;60.23;21.00;;;;;;;-0.69;100.00;100724.06;5032947;28;20045;-69
2024/01/28 07:09:03;;;;;;;59.30;21.33;;;;;;;-0.72;100.00;100724.19;5016666;28;20057;-69
2024/01/28 07:11:28;;;;;;;77.33;22.10;;;;;;;-0.71;100.00;100723.25;5001317;28;20041;-69
2024/01/28 07:13:54;;;;;;;56.40;21.40;;;;;;;-0.65;100.00;100723.03;5001278;28;20107;-70
2024/01/28 07:16:20;;;;;;;59.43;21.40;;;;;;;-0.53;100.00;100726.91;4985106;28;20041;-69
2024/01/28 07:18:46;;;;;;;47.97;18.50;;;;;;;-0.45;100.00;100719.63;5000568;28;20041;-73
2024/01/28 07:21:12;;;;;;;48.87;18.63;;;;;;;-0.35;100.00;100729.59;5016647;28;20504;-70
2024/01/28 07:23:37;;;;;;;57.30;19.27;;;;;;;-0.33;100.00;100719.09;5000135;28;20053;-69
2024/01/28 07:26:04;;;;;;;49.50;19.00;;;;;;;-0.28;100.00;100728.41;5000125;28;20131;-69
2024/01/28 07:28:31;;;;;;;47.03;18.13;;;;;;;-0.27;100.00;100722.31;4999868;28;20111;-69
2024/01/28 07:30:57;;;;;;;55.27;20.07;;;;;;;-0.17;100.00;100723.59;4983733;28;20053;-70
2024/01/28 07:33:22;;;;;;;50.77;18.60;;;;;;;-0.10;100.00;100737.25;5049251;28;20044;-69
2024/01/28 07:35:48;;;;;;;46.57;18.20;;;;;;;-0.07;100.00;100740.59;5000264;28;20041;-70
2024/01/28 07:38:14;;;;;;;45.37;18.17;;;;;;;0.00;100.00;100733.38;5016371;28;20127;-70
2024/01/28 07:40:40;;;;;;;41.77;16.83;;;;;;;0.05;100.00;100738.38;5015918;28;20045;-69
2024/01/28 07:43:05;;;;;;;47.67;16.97;;;;;;;0.14;100.00;100751.03;5016073;28;20045;-70
2024/01/28 07:45:32;;;;;;;46.23;17.90;;;;;;;0.21;100.00;100745.50;5015971;28;20388;-69
2024/01/28 07:47:58;;;;;;;44.73;17.13;;;;;;;0.25;100.00;100754.88;5015822;28;20428;-70
2024/01/28 07:50:24;;;;;;;36.30;15.43;;;;;;;0.32;100.00;100758.09;4983311;28;20049;-69
2024/01/28 07:52:50;;;;;;;43.27;16.57;;;;;;;0.36;100.00;100757.88;5015814;28;20049;-69
2024/01/28 07:55:15;;;;;;;37.67;15.93;;;;;;;0.41;100.00;100755.06;5015817;28;20037;-69
2024/01/28 07:57:41;;;;;;;40.63;16.47;;;;;;;0.44;100.00;100762.75;4999889;28;20045;-69
2024/01/28 08:00:10;;;;;;;44.40;16.93;;;;;;;0.49;100.00;100758.19;4983845;28;20083;-69
2024/01/28 08:02:39;;;;;;;37.03;16.50;;;;;;;0.49;100.00;100763.41;5000304;28;20107;-69
2024/01/28 08:05:04;;;;;;;37.57;15.67;;;;;;;0.52;100.00;100771.97;4983033;28;20468;-69
2024/01/28 08:07:30;;;;;;;38.47;15.97;;;;;;;0.53;100.00;100778.91;5015834;28;20389;-70
2024/01/28 08:09:56;;;;;;;36.63;14.90;;;;;;;0.55;100.00;100773.59;4999396;28;20053;-69
2024/01/28 08:12:23;;;;;;;35.73;15.27;;;;;;;0.57;100.00;100774.41;5031788;28;20471;-69
2024/01/28 08:14:49;;;;;;;32.53;15.23;;;;;;;0.62;100.00;100769.78;4983256;28;20144;-74
2024/01/28 08:17:15;;;;;;;32.33;15.00;;;;;;;0.60;100.00;100776.88;4982759;28;20045;-70
2024/01/28 08:19:40;;;;;;;36.77;15.13;;;;;;;0.61;100.00;100779.41;4998923;28;20045;-69
2024/01/28 08:22:06;;;;;;;43.17;17.83;;;;;;;0.63;100.00;100780.16;4982688;28;20046;-69
2024/01/28 08:24:32;;;;;;;39.27;18.07;;;;;;;0.65;100.00;100774.88;4998854;28;20049;-70
2024/01/28 08:26:58;;;;;;;37.80;16.30;;;;;;;0.70;100.00;100786.84;4982486;28;20122;-70
2024/01/28 08:29:25;;;;;;;36.80;17.40;;;;;;;0.77;100.00;100779.59;5015233;28;20045;-69
2024/01/28 08:31:51;;;;;;;37.33;16.87;;;;;;;0.74;100.00;100783.16;5031336;28;20056;-69
2024/01/28 08:34:17;;;;;;;36.43;15.63;;;;;;;0.80;100.00;100790.72;5014868;28;20144;-69
2024/01/28 08:36:43;;;;;;;43.03;17.00;;;;;;;0.81;100.00;100787.22;4998533;28;20041;-69
2024/01/28 08:39:09;;;;;;;38.47;17.47;;;;;;;0.91;100.00;100792.84;4998707;28;20048;-70
2024/01/28 08:41:36;;;;;;;39.07;17.67;;;;;;;0.91;100.00;100796.34;5014923;28;20061;-70
2024/01/28 08:44:06;;;;;;;34.30;16.17;;;;;;;1.04;100.00;100800.09;5031486;28;20087;-69
2024/01/28 08:46:32;;;;;;;36.15;16.00;;;;;;;0.95;100.00;100795.28;4998851;28;20132;-70
2024/01/28 08:48:58;;;;;;;37.20;16.13;;;;;;;0.95;100.00;100794.44;4998576;28;20552;-70
2024/01/28 08:51:24;;;;;;;40.17;16.50;;;;;;;0.99;100.00;100798.59;4982998;28;20136;-70
2024/01/28 08:53:50;;;;;;;38.63;15.93;;;;;;;0.99;100.00;100803.81;4999690;28;20045;-70
2024/01/28 08:56:16;;;;;;;41.33;17.43;;;;;;;1.03;100.00;100802.78;5032360;28;20068;-70
2024/01/28 08:58:42;;;;;;;40.03;17.97;;;;;;;1.01;100.00;100804.63;4999366;28;20060;-69
2024/01/28 09:01:08;;;;;;;35.03;17.07;;;;;;;1.04;100.00;100804.47;4982810;28;20499;-69
2024/01/28 09:03:34;;;;;;;45.37;18.73;;;;;;;1.02;100.00;100812.41;5032155;28;20045;-71
2024/01/28 09:06:05;;;;;;;38.30;17.20;;;;;;;1.04;100.00;100804.47;5015156;28;20064;-69
2024/01/28 09:08:31;;;;;;;35.40;17.87;;;;;;;1.04;100.00;100807.09;5046984;28;20100;-70
2024/01/28 09:10:57;;;;;;;35.43;16.00;;;;;;;1.03;100.00;100813.25;4981842;28;20049;-71
2024/01/28 09:13:26;;;;;;;38.53;16.67;;;;;;;1.14;100.00;100818.81;4998140;28;20103;-71
2024/01/28 09:15:53;;;;;;;35.50;16.30;;;;;;;1.05;100.00;100811.41;5031455;28;20049;-76
2024/01/28 09:18:19;;;;;;;39.80;17.17;;;;;;;1.08;100.00;100812.09;5031604;28;20148;-74
2024/01/28 09:20:45;;;;;;;31.43;15.53;;;;;;;1.09;100.00;100813.78;5032316;28;20102;-73
2024/01/28 09:23:11;;;;;;;35.50;15.53;;;;;;;1.11;100.00;100817.19;5047548;28;20037;-73
2024/01/28 09:25:37;;;;;;;31.93;14.90;;;;;;;1.09;100.00;100812.97;5030943;28;20184;-73
2024/01/28 09:28:03;;;;;;;31.97;15.40;;;;;;;1.09;100.00;100812.97;5030768;28;20118;-74
2024/01/28 09:30:29;;;;;;;30.83;16.17;;;;;;;1.11;100.00;100816.34;5034499;28;20077;-73
2024/01/28 09:32:55;;;;;;;32.70;14.87;;;;;;;1.11;100.00;100821.56;5035885;28;20416;-73
2024/01/28 09:35:21;;;;;;;30.57;14.50;;;;;;;1.15;100.00;100817.91;5036800;28;20037;-75
2024/01/28 09:37:46;;;;;;;30.63;14.07;;;;;;;1.20;100.00;100816.78;5053143;28;20087;-72
2024/01/28 09:40:13;;;;;;;30.33;15.57;;;;;;;1.32;100.00;100820.59;5055553;28;20421;-74
2024/01/28 09:42:45;;;;;;;27.27;13.30;;;;;;;1.43;100.00;100818.34;5041901;28;20041;-72
2024/01/28 09:45:10;;;;;;;25.27;13.67;;;;;;;1.29;100.00;100815.50;5044643;28;20049;-73
2024/01/28 09:47:37;;;;;;;27.20;13.93;;;;;;;1.35;100.00;100820.47;5045160;28;20044;-74
2024/01/28 09:50:04;;;;;;;26.53;13.93;;;;;;;1.31;100.00;100824.13;5037709;28;20093;-74
2024/01/28 09:52:31;;;;;;;28.00;14.00;;;;;;;1.23;100.00;100819.25;5036634;28;20406;-76
2024/01/28 09:54:56;;;;;;;30.80;15.27;;;;;;;1.23;100.00;100818.41;5035765;28;20491;-75
2024/01/28 09:57:24;;;;;;;25.83;13.37;;;;;;;1.30;100.00;100817.19;5035922;28;20084;-75
2024/01/28 09:59:50;;;;;;;25.30;13.40;;;;;;;1.28;100.00;100829.50;5034754;28;20075;-73
2024/01/28 10:02:17;;;;;;;25.43;13.30;;;;;;;1.24;100.00;100822.72;5035665;28;20502;-76
2024/01/28 10:04:45;;;;;;;27.03;14.13;;;;;;;1.29;100.00;100818.13;5035236;28;20037;-73
2024/01/28 10:07:11;;;;;;;29.73;14.20;;;;;;;1.25;100.00;100816.56;5035594;28;20052;-74
2024/01/28 10:09:37;;;;;;;23.77;13.40;;;;;;;1.25;100.00;100824.41;5034446;28;20061;-75
2024/01/28 10:12:03;;;;;;;27.17;13.20;;;;;;;1.34;100.00;100818.75;5038129;28;20361;-76
2024/01/28 10:14:29;;;;;;;29.57;14.83;;;;;;;1.37;100.00;100829.06;5032970;28;20594;-75
2024/01/28 10:16:57;;;;;;;25.70;13.53;;;;;;;1.48;100.00;100822.44;5046035;28;20123;-66
2024/01/28 10:19:23;;;;;;;22.60;13.40;;;;;;;1.46;100.00;100828.66;5046256;28;20041;-76
2024/01/28 10:21:49;;;;;;;29.47;14.63;;;;;;;1.46;100.00;100832.09;5044387;28;20482;-76
2024/01/28 10:24:16;;;;;;;25.43;14.60;;;;;;;1.55;100.00;100828.22;5028056;28;20478;-76
2024/01/28 10:26:42;;;;;;;26.67;14.63;;;;;;;1.49;100.00;100823.28;5044275;28;20045;-74
2024/01/28 10:29:09;;;;;;;26.60;14.50;;;;;;;1.54;100.00;100829.13;5046654;28;20044;-73
2024/01/28 10:31:36;;;;;;;28.13;14.53;;;;;;;1.53;100.00;100827.44;5043627;28;20044;-73
2024/01/28 10:34:03;;;;;;;29.17;13.83;;;;;;;1.49;100.00;100824.13;5044298;28;20040;-72
2024/01/28 10:36:32;;;;;;;29.23;14.40;;;;;;;1.55;100.00;100821.19;5044196;28;20044;-69
2024/01/28 10:39:01;;;;;;;28.10;14.57;;;;;;;1.58;100.00;100815.00;5032513;28;20041;-69
2024/01/28 10:41:27;;;;;;;26.90;14.83;;;;;;;1.45;100.00;100824.31;5041491;28;20136;-71
2024/01/28 10:44:07;;;;;;;27.03;14.87;;;;;;;1.55;100.00;100836.09;5015091;28;20037;-71
2024/01/28 10:46:41;;;;;;;35.63;15.20;;;;;;;1.53;100.00;100820.44;5042889;28;20442;-71
2024/01/28 10:49:09;;;;;;;25.47;14.17;;;;;;;1.52;100.00;100828.38;5044726;28;20091;-72
2024/01/28 10:51:36;;;;;;;26.73;13.17;;;;;;;1.53;100.00;100833.53;5015676;28;20040;-71
2024/01/28 10:54:09;;;;;;;25.00;13.73;;;;;;;1.48;100.00;100832.03;5028292;28;20392;-71
2024/01/28 10:56:37;;;;;;;24.03;13.63;;;;;;;1.48;100.00;100837.28;5042089;28;20033;-72
2024/01/28 10:59:02;;;;;;;23.77;13.53;;;;;;;1.46;100.00;100844.38;5028129;28;20044;-71
2024/01/28 11:01:29;;;;;;;24.57;13.63;;;;;;;1.57;100.00;100849.94;5042447;28;20454;-70
2024/01/28 11:03:56;;;;;;;23.03;12.80;;;;;;;1.56;100.00;100851.72;5027136;28;20490;-68
2024/01/28 11:06:25;;;;;;;24.47;13.37;;;;;;;1.68;100.00;100856.38;5044229;28;20394;-71